Terminal Aerodrome Forecast
Issued by NWS

Home | Current Version | Previous Version | Graphics & Text | Print | Product List | Glossary On
Versions: 1 2 3 4 5 6 7 8 9 10 11 12 13 14 15 16 17 18 19 20 21 22 23 24 25 26 27 28 29 30 31 32 33
000
FTUS43 KABR 150525
TAFATY
TAF
KATY 150525Z 1506/1606 VRB03KT P6SM BKN200
     FM151400 13007KT P6SM BKN025
     FM151600 13009KT P6SM BKN035
     FM160000 11011KT P6SM SHRA OVC050
     FM160300 12008KT P6SM SHRA OVC045=

USA.gov is the U.S. government's official web portal to all federal, state and local government web resources and services.